Terminal Aerodrome Forecast
Issued by NWS Lake Charles, LA

Home | Current Version | Previous Version | Text Only | Print | Product List | Glossary On
Versions: 1 2 3 4 5 6 7 8 9 10 11 12 13 14 15 16 17
078
FTUS44 KLCH 241731
TAFARA
TAF
KARA 241731Z 2418/2518 VRB06KT P6SM VCTS SCT035CB SCT050 BKN200
      TEMPO 2418/2422 VRB15G25KT 3SM TSRA BKN025CB
     FM250200 VRB03KT P6SM SCT050 BKN250
     FM251200 VRB05KT P6SM VCSH SCT025=

USA.gov is the U.S. government's official web portal to all federal, state and local government web resources and services.